Geneva, IL (60134)

6:30 PM CDT on August 26, 2016 (GMT -0500)
Dover Ridge | | Change Station

Elev 745 ft 41.89 °N, 88.33 °W | Updated 3 seconds ago

Clear
Clear
77.6 °F
Feels Like 79 °F
N
1.2
Wind Variable Wind from ENE
Gusts 1.2 mph

Today
High -- | Low -- °F
--% Chance of Precip.
Yesterday
High -- | Low -- °F
Precip. -- in
Pressure 30.10 in
Visibility 10.0 miles
Clouds Clear
Heat Index 79 °F
Dew Point 64 °F
Humidity 64%
Rainfall 0.00 in
Snow Depth Not available.
6:13 AM 7:35 PM
Waning Crescent, 30% visible
METAR KDPA 262252Z 07010KT 10SM CLR 25/16 A3011 RMK AO2 SLP192 T02500161
Pressure 30.10 in
Visibility 10.0 miles
Clouds Clear
Heat Index 79 °F
Dew Point 64 °F
Humidity 64%
Rainfall 0.00 in
Snow Depth Not available.
6:13 AM 7:35 PM
Waning Crescent, 30% visible
METAR KDPA 262252Z 07010KT 10SM CLR 25/16 A3011 RMK AO2 SLP192 T02500161

10-Day Weather Forecast

Almanac

Astronomy

Aug. 26, 2016 Rise Set
Actual Time
Civil Twilight
Nautical Twilight
Astronomical Twilight
Moon
Length of Visible Light
Length of Day
Tomorrow will be .
, % of the Moon is Illuminated

Today's Extremes

State Highs State Lows

Community

WunderPhotos

Upload Photos

1,935,254 photos uploaded!

WunderBlog® & News

Nearby

Air Quality

  Air Quality AQ Index Pollutant
Not available.

Snow Depth

Station Depth Elevation

Earthquake Activity

City Distance Mag. Time & Date
Minimum magnitude displayed is 2.5.

Coastal Water Temperatures

Place Temperature

Stations

Nearby Weather Stations

Station Location Temp. Windchill Dew Point Humidity Wind Precip. Elev Updated Type
                   

Watches & Warnings

There are currently no watches in effect.